createdAt,value
2022-10-23T00:01:45.842Z,101266.84
2022-10-23T00:04:19.404Z,101272.06
2022-10-23T00:06:47.486Z,101259.72
2022-10-23T00:09:20.413Z,101262.41
2022-10-23T00:11:48.782Z,101258.00
2022-10-23T00:14:18.439Z,101249.19
2022-10-23T00:16:46.685Z,101255.38
2022-10-23T00:19:13.674Z,101256.19
2022-10-23T00:21:41.251Z,101247.41
2022-10-23T00:26:39.369Z,101250.97
2022-10-23T00:29:07.186Z,101252.72
2022-10-23T00:31:34.496Z,101243.97
2022-10-23T00:34:01.631Z,101241.34
2022-10-23T00:36:28.585Z,101242.19
2022-10-23T00:38:55.691Z,101242.16
2022-10-23T00:41:29.267Z,101245.72
2022-10-23T00:44:02.927Z,101245.69
2022-10-23T00:46:30.858Z,101245.72
2022-10-23T00:48:59.496Z,101248.38
2022-10-23T00:51:31.730Z,101257.19
2022-10-23T00:54:22.790Z,101257.16
2022-10-23T00:56:47.989Z,101249.19
2022-10-23T00:59:15.508Z,101261.56
2022-10-23T01:01:42.903Z,101257.09
2022-10-23T01:04:11.079Z,101249.16
2022-10-23T01:07:19.643Z,101243.03
2022-10-23T01:10:06.021Z,101236.88
2022-10-23T01:12:51.683Z,101236.91
2022-10-23T01:15:48.095Z,101232.44
2022-10-23T01:18:31.819Z,101230.78
2022-10-23T01:21:34.045Z,101237.84
2022-10-23T01:24:29.857Z,101231.69
2022-10-23T01:27:14.647Z,101229.16
2022-10-23T01:30:06.042Z,101226.47
2022-10-23T01:32:45.285Z,101225.69
2022-10-23T01:35:19.061Z,101213.31
2022-10-23T01:37:56.324Z,101214.13
2022-10-23T01:40:30.979Z,101214.19
2022-10-23T01:43:12.441Z,101205.31
2022-10-23T01:45:57.827Z,101198.22
2022-10-23T01:48:31.433Z,101199.09
2022-10-23T01:51:03.826Z,101193.81
2022-10-23T01:53:35.385Z,101188.53
2022-10-23T01:56:06.345Z,101196.44
2022-10-23T01:58:36.038Z,101185.88
2022-10-23T02:01:06.920Z,101186.75
2022-10-23T02:03:35.934Z,101181.44
2022-10-23T02:06:02.960Z,101186.75
2022-10-23T02:08:30.870Z,101187.63
2022-10-23T02:11:07.551Z,101179.72
2022-10-23T02:14:11.641Z,101180.59
2022-10-23T02:16:52.667Z,101182.31
2022-10-23T02:19:26.502Z,101177.94
2022-10-23T02:22:21.561Z,101178.81
2022-10-23T02:25:09.350Z,101172.63
2022-10-23T02:27:42.554Z,101171.75
2022-10-23T02:30:13.802Z,101156.78
2022-10-23T02:32:47.531Z,101148.84
2022-10-23T02:35:17.879Z,101140.06
2022-10-23T02:37:52.980Z,101141.81
2022-10-23T02:40:20.671Z,101129.50
2022-10-23T02:43:24.248Z,101119.81
2022-10-23T02:46:07.185Z,101117.16
2022-10-23T02:49:10.251Z,101108.34
2022-10-23T02:52:01.054Z,101106.56
2022-10-23T02:55:11.340Z,101113.56
2022-10-23T02:58:15.626Z,101104.78
2022-10-23T03:00:49.844Z,101106.47
2022-10-23T03:03:27.154Z,101103.81
2022-10-23T03:05:54.335Z,101096.75
2022-10-23T03:08:21.327Z,101095.00
2022-10-23T03:13:20.195Z,101088.00
2022-10-23T03:15:47.206Z,101088.00
2022-10-23T03:18:14.251Z,101080.97
2022-10-23T03:20:41.189Z,101084.41
2022-10-23T03:23:11.616Z,101088.81
2022-10-23T03:25:38.545Z,101080.06
2022-10-23T03:28:05.501Z,101070.38
2022-10-23T03:30:32.569Z,101080.03
2022-10-23T03:32:59.625Z,101077.44
2022-10-23T03:35:26.606Z,101069.47
2022-10-23T03:37:53.554Z,101072.97
2022-10-23T03:40:20.731Z,101065.97
2022-10-23T03:42:47.730Z,101057.19
2022-10-23T03:45:14.876Z,101055.44
2022-10-23T03:47:42.113Z,101044.84
2022-10-23T03:50:09.943Z,101042.22
2022-10-23T03:52:36.903Z,101032.50
2022-10-23T03:55:05.329Z,101043.09
2022-10-23T03:57:32.912Z,101040.38
2022-10-23T03:59:59.912Z,101042.16
2022-10-23T04:02:27.138Z,101035.97
2022-10-23T04:04:54.910Z,101029.75
2022-10-23T04:07:21.864Z,101028.91
2022-10-23T04:09:48.856Z,101030.63
2022-10-23T04:12:16.008Z,101027.13
2022-10-23T04:14:42.997Z,101019.22
2022-10-23T04:17:09.998Z,101020.91
2022-10-23T04:19:36.976Z,101029.75
2022-10-23T04:22:04.000Z,101018.28
2022-10-23T04:24:30.982Z,101020.03
2022-10-23T04:26:57.942Z,101022.66
2022-10-23T04:29:24.986Z,101015.72
2022-10-23T04:31:52.226Z,101011.31
2022-10-23T04:34:19.666Z,101021.81
2022-10-23T04:36:46.717Z,101019.16
2022-10-23T04:39:15.086Z,101011.22
2022-10-23T04:41:42.102Z,101018.22
2022-10-23T04:44:09.109Z,101020.88
2022-10-23T04:46:36.217Z,101012.94
2022-10-23T04:49:03.242Z,101013.78
2022-10-23T04:51:30.288Z,101012.91
2022-10-23T04:53:57.234Z,100995.31
2022-10-23T04:56:24.218Z,100992.66
2022-10-23T04:58:52.520Z,100996.22
2022-10-23T05:01:19.689Z,100997.09
2022-10-23T05:03:46.798Z,100998.00
2022-10-23T05:06:13.759Z,100986.56
2022-10-23T05:08:41.031Z,100987.47
2022-10-23T05:11:08.035Z,100992.69
2022-10-23T05:13:35.607Z,100983.03
2022-10-23T05:16:02.609Z,100982.16
2022-10-23T05:18:46.161Z,100990.97
2022-10-23T05:21:21.741Z,100980.41
2022-10-23T05:23:48.813Z,100983.06
2022-10-23T05:26:15.789Z,100974.25
2022-10-23T05:28:42.749Z,100978.66
2022-10-23T05:31:09.873Z,100975.09
2022-10-23T05:33:37.219Z,100982.19
2022-10-23T05:36:04.699Z,100966.34
2022-10-23T05:38:34.826Z,100964.56
2022-10-23T05:41:01.830Z,100971.69
2022-10-23T05:43:31.213Z,100968.97
2022-10-23T05:45:59.341Z,100966.41
2022-10-23T05:48:41.374Z,100968.97
2022-10-23T05:51:11.580Z,100969.91
2022-10-23T05:53:41.672Z,100961.94
2022-10-23T05:56:10.071Z,100956.66
2022-10-23T05:58:37.074Z,100961.94
2022-10-23T06:01:13.134Z,100941.69
2022-10-23T06:03:40.539Z,100952.22
2022-10-23T06:06:08.333Z,100968.03
2022-10-23T06:08:35.883Z,100957.50
2022-10-23T06:11:12.556Z,100945.19
2022-10-23T06:13:42.486Z,100939.91
2022-10-23T06:16:15.560Z,100937.28
2022-10-23T06:18:43.149Z,100937.28
2022-10-23T06:21:10.268Z,100930.25
2022-10-23T06:23:39.959Z,100913.50
2022-10-23T06:26:09.708Z,100914.41
2022-10-23T06:28:36.765Z,100922.31
2022-10-23T06:31:09.731Z,100915.25
2022-10-23T06:33:37.097Z,100916.13
2022-10-23T06:36:05.577Z,100907.34
2022-10-23T06:38:37.620Z,100895.88
2022-10-23T06:41:08.122Z,100897.66
2022-10-23T06:43:35.148Z,100896.78
2022-10-23T06:46:04.439Z,100896.78
2022-10-23T06:48:32.281Z,100902.13
2022-10-23T06:51:03.935Z,100899.44
2022-10-23T06:53:30.953Z,100896.84
2022-10-23T06:56:02.988Z,100891.56
2022-10-23T06:58:30.317Z,100891.56
2022-10-23T07:01:02.132Z,100891.56
2022-10-23T07:03:29.344Z,100883.66
2022-10-23T07:05:56.313Z,100881.91
2022-10-23T07:08:23.953Z,100888.94
2022-10-23T07:10:50.925Z,100888.06
2022-10-23T07:13:17.954Z,100888.97
2022-10-23T07:15:44.946Z,100886.34
2022-10-23T07:18:14.620Z,100887.22
2022-10-23T07:20:42.410Z,100885.47
2022-10-23T07:23:12.209Z,100882.84
2022-10-23T07:25:39.213Z,100881.97
2022-10-23T07:28:06.887Z,100883.75
2022-10-23T07:30:34.066Z,100887.28
2022-10-23T07:33:01.055Z,100875.81
2022-10-23T07:35:28.012Z,100884.66
2022-10-23T07:37:54.946Z,100891.69
2022-10-23T07:40:21.895Z,100888.19
2022-10-23T07:42:48.867Z,100886.47
2022-10-23T07:45:15.973Z,100882.94
2022-10-23T07:47:43.300Z,100883.81
2022-10-23T07:50:10.520Z,100886.47
2022-10-23T07:52:37.476Z,100881.19
2022-10-23T07:55:04.852Z,100890.03
2022-10-23T07:57:31.771Z,100875.94
2022-10-23T07:59:58.720Z,100874.22
2022-10-23T08:02:25.789Z,100868.03
2022-10-23T08:04:52.749Z,100869.81
2022-10-23T08:07:19.774Z,100872.44
2022-10-23T08:09:46.820Z,100862.75
2022-10-23T08:12:13.857Z,100855.69
2022-10-23T08:14:40.975Z,100852.19
2022-10-23T08:17:09.898Z,100854.81
2022-10-23T08:19:37.186Z,100848.66
2022-10-23T08:22:04.501Z,100842.47
2022-10-23T08:24:31.478Z,100841.59
2022-10-23T08:26:58.777Z,100843.38
2022-10-23T08:29:25.874Z,100835.44
2022-10-23T08:31:57.428Z,100824.88
2022-10-23T08:34:24.807Z,100828.41
2022-10-23T08:36:51.902Z,100824.88
2022-10-23T08:39:18.886Z,100830.16
2022-10-23T08:41:52.157Z,100831.91
2022-10-23T08:44:28.007Z,100829.28
2022-10-23T08:47:06.992Z,100822.22
2022-10-23T08:49:43.120Z,100822.22
2022-10-23T08:52:47.555Z,100816.03
2022-10-23T08:55:26.354Z,100809.00
2022-10-23T08:57:58.951Z,100796.69
2022-10-23T09:00:26.029Z,100787.84
2022-10-23T09:02:54.244Z,100803.72
2022-10-23T09:05:57.409Z,100787.84
2022-10-23T09:09:27.394Z,100779.00
2022-10-23T09:12:09.070Z,100772.81
2022-10-23T09:15:12.883Z,100778.09
2022-10-23T09:17:43.807Z,100773.69
2022-10-23T09:20:37.457Z,100771.03
2022-10-23T09:23:17.117Z,100765.72
2022-10-23T09:25:46.191Z,100765.72
2022-10-23T09:28:25.832Z,100772.78
2022-10-23T09:30:52.939Z,100761.31
2022-10-23T09:33:30.707Z,100758.66
2022-10-23T09:36:07.775Z,100757.75
2022-10-23T09:38:51.707Z,100754.22
2022-10-23T09:41:36.402Z,100742.72
2022-10-23T09:44:22.962Z,100731.22
2022-10-23T09:46:59.831Z,100723.25
2022-10-23T09:49:30.390Z,100726.75
2022-10-23T09:52:12.984Z,100716.13
2022-10-23T09:54:47.337Z,100718.75
2022-10-23T09:57:40.195Z,100710.78
2022-10-23T10:00:24.271Z,100712.53
2022-10-23T10:03:01.875Z,100693.09
2022-10-23T10:05:35.327Z,100701.00
2022-10-23T10:08:48.803Z,100685.94
2022-10-23T10:11:42.703Z,100685.00
2022-10-23T10:14:53.792Z,100687.66
2022-10-23T10:17:51.161Z,100698.22
2022-10-23T10:21:02.735Z,100680.59
2022-10-23T10:24:07.991Z,100684.91
2022-10-23T10:27:18.464Z,100693.72
2022-10-23T10:30:21.480Z,100677.78
2022-10-23T10:33:01.344Z,100670.69
2022-10-23T10:35:42.886Z,100665.34
2022-10-23T10:38:16.959Z,100683.91
2022-10-23T10:41:26.513Z,100674.09
2022-10-23T10:44:31.794Z,100663.47
2022-10-23T10:47:36.905Z,100656.34
2022-10-23T10:50:23.694Z,100647.38
2022-10-23T10:53:20.554Z,100642.91
2022-10-23T10:55:54.753Z,100645.50
2022-10-23T10:59:00.616Z,100642.75
2022-10-23T11:02:20.243Z,100633.03
2022-10-23T11:05:26.395Z,100639.13
2022-10-23T11:08:04.008Z,100614.28
2022-10-23T11:10:32.535Z,100628.38
2022-10-23T11:12:59.915Z,100623.88
2022-10-23T11:15:42.894Z,100608.75
2022-10-23T11:18:25.659Z,100599.84
2022-10-23T11:20:59.984Z,100586.44
2022-10-23T11:24:03.483Z,100581.03
2022-10-23T11:26:46.980Z,100567.69
2022-10-23T11:30:02.158Z,100564.00
2022-10-23T11:33:02.581Z,100575.41
2022-10-23T11:35:57.437Z,100574.44
2022-10-23T11:38:33.307Z,100559.25
2022-10-23T11:41:23.682Z,100559.22
2022-10-23T11:43:57.478Z,100555.63
2022-10-23T11:46:27.142Z,100551.97
2022-10-23T11:48:56.715Z,100543.00
2022-10-23T11:51:40.660Z,100544.78
2022-10-23T11:54:10.598Z,100541.16
2022-10-23T11:56:39.406Z,100533.13
2022-10-23T11:59:34.416Z,100527.75
2022-10-23T12:02:19.093Z,100516.13
2022-10-23T12:04:52.703Z,100512.53
2022-10-23T12:07:25.719Z,100526.59
2022-10-23T12:10:03.307Z,100514.22
2022-10-23T12:12:40.821Z,100521.22
2022-10-23T12:15:15.987Z,100514.94
2022-10-23T12:17:44.502Z,100514.81
2022-10-23T12:20:11.675Z,100503.28
2022-10-23T12:23:05.839Z,100510.34
2022-10-23T12:26:02.887Z,100509.22
2022-10-23T12:29:19.399Z,100517.00
2022-10-23T12:32:00.449Z,100501.16
2022-10-23T12:34:56.635Z,100488.69
2022-10-23T12:38:03.220Z,100490.31
2022-10-23T12:40:30.458Z,100473.44
2022-10-23T12:43:00.770Z,100458.31
2022-10-23T12:45:38.240Z,100461.00
2022-10-23T12:48:06.111Z,100462.63
2022-10-23T12:50:35.032Z,100457.25
2022-10-23T12:53:07.649Z,100441.22
2022-10-23T12:56:01.354Z,100449.09
2022-10-23T12:58:31.951Z,100441.94
2022-10-23T13:01:04.337Z,100428.63
2022-10-23T13:03:34.104Z,100407.38
2022-10-23T13:06:03.089Z,100408.13
2022-10-23T13:08:43.260Z,100408.75
2022-10-23T13:11:21.560Z,100406.06
2022-10-23T13:13:49.441Z,100399.84
2022-10-23T13:16:23.570Z,100403.44
2022-10-23T13:18:51.471Z,100395.28
2022-10-23T13:21:23.691Z,100390.91
2022-10-23T13:23:52.149Z,100397.78
2022-10-23T13:26:34.702Z,100397.78
2022-10-23T13:29:08.773Z,100396.00
2022-10-23T13:31:36.926Z,100394.97
2022-10-23T13:34:14.516Z,100386.81
2022-10-23T13:36:54.269Z,100390.28
2022-10-23T13:39:47.272Z,100392.03
2022-10-23T13:42:15.432Z,100379.63
2022-10-23T13:44:42.720Z,100378.69
2022-10-23T13:47:14.455Z,100379.44
2022-10-23T13:49:41.386Z,100377.66
2022-10-23T13:52:13.805Z,100373.19
2022-10-23T13:54:40.815Z,100371.41
2022-10-23T13:57:14.612Z,100367.78
2022-10-23T13:59:42.344Z,100382.84
2022-10-23T14:02:22.581Z,100385.56
2022-10-23T14:04:51.424Z,100383.78
2022-10-23T14:07:18.640Z,100377.53
2022-10-23T14:09:45.733Z,100374.78
2022-10-23T14:12:13.612Z,100366.88
2022-10-23T14:14:40.810Z,100372.25
2022-10-23T14:17:07.792Z,100363.44
2022-10-23T14:19:34.902Z,100372.28
2022-10-23T14:22:01.841Z,100368.88
2022-10-23T14:24:28.885Z,100367.88
2022-10-23T14:26:57.554Z,100369.72
2022-10-23T14:29:24.730Z,100378.53
2022-10-23T14:31:51.941Z,100368.00
2022-10-23T14:34:19.195Z,100370.59
2022-10-23T14:36:50.184Z,100359.97
2022-10-23T14:39:18.233Z,100356.47
2022-10-23T14:41:45.386Z,100349.44
2022-10-23T14:44:12.390Z,100345.91
2022-10-23T14:46:39.362Z,100344.16
2022-10-23T14:49:06.504Z,100340.81
2022-10-23T14:51:35.339Z,100343.44
2022-10-23T14:54:05.260Z,100335.41
2022-10-23T14:56:36.051Z,100333.75
2022-10-23T14:59:04.206Z,100327.53
2022-10-23T15:01:43.879Z,100321.44
2022-10-23T15:04:14.659Z,100315.22
2022-10-23T15:06:42.471Z,100318.84
2022-10-23T15:09:09.797Z,100303.78
2022-10-23T15:11:36.843Z,100304.63
2022-10-23T15:14:03.791Z,100292.28
2022-10-23T15:16:30.826Z,100302.91
2022-10-23T15:18:57.919Z,100291.53
2022-10-23T15:21:25.170Z,100287.97
2022-10-23T15:23:53.044Z,100283.63
2022-10-23T15:26:22.973Z,100286.38
2022-10-23T15:28:55.798Z,100287.25
2022-10-23T15:31:37.694Z,100291.75
2022-10-23T15:34:05.991Z,100286.50
2022-10-23T15:36:33.536Z,100283.75
2022-10-23T15:39:00.885Z,100279.31
2022-10-23T15:41:31.257Z,100277.66
2022-10-23T15:44:02.612Z,100270.50
2022-10-23T15:46:30.155Z,100267.97
2022-10-23T15:48:57.139Z,100252.91
2022-10-23T15:51:24.347Z,100260.09
2022-10-23T15:53:51.321Z,100271.59
2022-10-23T15:56:18.287Z,100279.59
2022-10-23T15:58:45.360Z,100274.28
2022-10-23T16:01:12.518Z,100261.06
2022-10-23T16:03:39.777Z,100262.84
2022-10-23T16:06:10.626Z,100255.81
2022-10-23T16:08:38.257Z,100257.63
2022-10-23T16:11:14.884Z,100250.53
2022-10-23T16:13:43.614Z,100261.19
2022-10-23T16:16:11.739Z,100257.72
2022-10-23T16:18:39.845Z,100252.34
2022-10-23T16:21:07.565Z,100248.94
2022-10-23T16:23:34.789Z,100245.38
2022-10-23T16:26:06.011Z,100240.00
2022-10-23T16:28:33.203Z,100236.59
2022-10-23T16:31:00.820Z,100232.25
2022-10-23T16:33:27.874Z,100232.25
2022-10-23T16:35:54.799Z,100234.09
2022-10-23T16:38:21.773Z,100234.94
2022-10-23T16:40:53.145Z,100232.34
2022-10-23T16:43:20.135Z,100242.16
2022-10-23T16:45:47.151Z,100242.16
2022-10-23T16:48:14.243Z,100237.75
2022-10-23T16:50:41.679Z,100231.59
2022-10-23T16:53:08.669Z,100220.06
2022-10-23T16:55:35.666Z,100208.63
2022-10-23T16:58:02.912Z,100203.31
2022-10-23T17:00:34.994Z,100212.38
2022-10-23T17:03:04.396Z,100216.81
2022-10-23T17:05:35.347Z,100222.22
2022-10-23T17:08:02.435Z,100225.84
2022-10-23T17:10:29.659Z,100223.28
2022-10-23T17:12:56.610Z,100225.75
2022-10-23T17:15:23.976Z,100221.56
2022-10-23T17:17:51.165Z,100228.63
2022-10-23T17:20:18.665Z,100223.34
2022-10-23T17:22:45.775Z,100217.16
2022-10-23T17:25:12.797Z,100215.53
2022-10-23T17:27:39.743Z,100203.19
2022-10-23T17:30:12.380Z,100197.84
2022-10-23T17:32:39.679Z,100198.72
2022-10-23T17:35:07.554Z,100189.84
2022-10-23T17:37:34.569Z,100188.22
2022-10-23T17:40:02.632Z,100198.81
2022-10-23T17:42:29.767Z,100198.88
2022-10-23T17:44:56.849Z,100207.63
2022-10-23T17:47:23.823Z,100192.69
2022-10-23T17:49:50.945Z,100201.50
2022-10-23T17:52:18.049Z,100202.38
2022-10-23T17:54:45.029Z,100187.22
2022-10-23T17:57:12.059Z,100173.97
2022-10-23T17:59:39.157Z,100176.59
2022-10-23T18:02:07.205Z,100207.69
2022-10-23T18:04:35.024Z,100190.91
2022-10-23T18:07:02.111Z,100198.97
2022-10-23T18:09:29.185Z,100216.69
2022-10-23T18:11:56.152Z,100201.59
2022-10-23T18:14:26.085Z,100198.88
2022-10-23T18:16:55.701Z,100190.03
2022-10-23T18:19:22.705Z,100186.44
2022-10-23T18:21:49.705Z,100194.41
2022-10-23T18:24:17.457Z,100189.97
2022-10-23T18:26:46.070Z,100193.50
2022-10-23T18:29:14.461Z,100213.84
2022-10-23T18:31:42.292Z,100243.09
2022-10-23T18:34:21.208Z,100271.50
2022-10-23T18:36:51.038Z,100264.22
2022-10-23T18:39:22.856Z,100232.84
2022-10-23T18:41:55.614Z,100253.28
2022-10-23T18:44:27.010Z,100251.78
2022-10-23T18:46:55.113Z,100237.03
2022-10-23T18:49:23.842Z,100231.16
2022-10-23T18:51:51.451Z,100224.06
2022-10-23T18:54:21.610Z,100211.84
2022-10-23T18:56:49.465Z,100242.97
2022-10-23T18:59:19.878Z,100253.72
2022-10-23T19:01:47.228Z,100257.38
2022-10-23T19:04:16.295Z,100267.06
2022-10-23T19:06:44.265Z,100276.00
2022-10-23T19:09:13.960Z,100278.81
2022-10-23T19:11:42.521Z,100280.63
2022-10-23T19:14:10.304Z,100281.69
2022-10-23T19:17:02.860Z,100291.56
2022-10-23T19:19:46.983Z,100295.28
2022-10-23T19:22:16.915Z,100291.91
2022-10-23T19:24:54.896Z,100294.63
2022-10-23T19:27:22.141Z,100278.69
2022-10-23T19:29:53.582Z,100281.50
2022-10-23T19:32:24.686Z,100287.72
2022-10-23T19:34:51.917Z,100274.59
2022-10-23T19:37:19.167Z,100276.34
2022-10-23T19:39:46.415Z,100277.25
2022-10-23T19:42:13.754Z,100285.16
2022-10-23T19:44:40.963Z,100290.44
2022-10-23T19:47:08.211Z,100292.25
2022-10-23T19:49:35.386Z,100297.63
2022-10-23T19:52:04.051Z,100299.41
2022-10-23T19:54:31.421Z,100302.97
2022-10-23T19:57:00.287Z,100309.19
2022-10-23T19:59:27.439Z,100308.38
2022-10-23T20:01:54.842Z,100320.78
2022-10-23T20:04:22.151Z,100319.06
2022-10-23T20:06:49.317Z,100316.31
2022-10-23T20:09:16.667Z,100309.22
2022-10-23T20:11:45.265Z,100308.38
2022-10-23T20:14:13.273Z,100319.91
2022-10-23T20:16:42.777Z,100329.66
2022-10-23T20:19:12.904Z,100331.38
2022-10-23T20:21:42.649Z,100340.22
2022-10-23T20:24:11.905Z,100344.63
2022-10-23T20:26:48.907Z,100339.31
2022-10-23T20:29:16.327Z,100341.94
2022-10-23T20:31:44.094Z,100342.88
2022-10-23T20:34:12.091Z,100341.13
2022-10-23T20:36:46.446Z,100341.97
2022-10-23T20:39:21.537Z,100347.38
2022-10-23T20:41:48.612Z,100335.06
2022-10-23T20:46:50.511Z,100335.94
2022-10-23T20:49:18.121Z,100338.59
2022-10-23T20:51:52.722Z,100338.66
2022-10-23T20:54:28.700Z,100337.78
2022-10-23T20:56:57.068Z,100346.59
2022-10-23T20:59:24.339Z,100339.53
2022-10-23T21:01:53.569Z,100359.81
2022-10-23T21:04:25.234Z,100354.38
2022-10-23T21:07:11.037Z,100360.50
2022-10-23T21:09:39.337Z,100380.75
2022-10-23T21:12:07.040Z,100379.66
2022-10-23T21:14:35.171Z,100377.06
2022-10-23T21:17:02.178Z,100366.59
2022-10-23T21:19:29.293Z,100351.63
2022-10-23T21:21:56.324Z,100348.13
2022-10-23T21:24:24.156Z,100347.31
2022-10-23T21:26:51.616Z,100343.06
2022-10-23T21:29:19.774Z,100341.28
2022-10-23T21:31:59.365Z,100339.56
2022-10-23T21:34:26.874Z,100331.66
2022-10-23T21:39:45.912Z,100342.34
2022-10-23T21:42:14.028Z,100337.97
2022-10-23T21:44:40.996Z,100353.06
2022-10-23T21:47:08.032Z,100339.78
2022-10-23T21:49:35.000Z,100334.47
2022-10-23T21:52:02.041Z,100343.34
2022-10-23T21:54:29.004Z,100338.97
2022-10-23T21:56:56.062Z,100337.28
2022-10-23T21:59:28.888Z,100332.97
2022-10-23T22:01:57.682Z,100329.34
2022-10-23T22:04:24.786Z,100329.41
2022-10-23T22:06:51.937Z,100335.59
2022-10-23T22:09:21.086Z,100327.75
2022-10-23T22:11:53.197Z,100329.53
2022-10-23T22:14:20.967Z,100326.88
2022-10-23T22:16:48.308Z,100320.72
2022-10-23T22:19:17.875Z,100323.34
2022-10-23T22:21:46.035Z,100316.31
2022-10-23T22:24:13.447Z,100325.13
2022-10-23T22:26:44.705Z,100318.06
2022-10-23T22:29:16.004Z,100318.97
2022-10-23T22:31:45.798Z,100318.91
2022-10-23T22:34:47.890Z,100316.25
2022-10-23T22:37:12.595Z,100301.19
2022-10-23T22:39:40.345Z,100310.06
2022-10-23T22:42:07.565Z,100294.16
2022-10-23T22:44:34.562Z,100286.19
2022-10-23T22:47:01.531Z,100283.59
2022-10-23T22:49:28.596Z,100277.38
2022-10-23T22:51:55.528Z,100275.69
2022-10-23T22:54:22.502Z,100275.63
2022-10-23T22:56:49.435Z,100265.94
2022-10-23T22:59:16.391Z,100268.50
2022-10-23T23:01:46.799Z,100266.75
2022-10-23T23:04:37.902Z,100274.72
2022-10-23T23:07:09.801Z,100262.28
2022-10-23T23:09:42.706Z,100265.78
2022-10-23T23:12:12.193Z,100266.66
2022-10-23T23:14:39.843Z,100259.66
2022-10-23T23:17:08.487Z,100257.84
2022-10-23T23:19:36.123Z,100248.13
2022-10-23T23:22:03.588Z,100253.50
2022-10-23T23:24:30.696Z,100256.09
2022-10-23T23:26:57.650Z,100251.66
2022-10-23T23:29:24.624Z,100249.00
2022-10-23T23:31:51.719Z,100250.75
2022-10-23T23:34:18.667Z,100247.19
2022-10-23T23:36:45.697Z,100247.22
2022-10-23T23:39:12.732Z,100247.19
2022-10-23T23:41:39.760Z,100246.31
2022-10-23T23:44:08.368Z,100255.16
2022-10-23T23:46:35.404Z,100243.75
2022-10-23T23:49:02.409Z,100242.00
2022-10-23T23:51:29.469Z,100241.97
2022-10-23T23:53:56.394Z,100246.47
2022-10-23T23:56:23.368Z,100248.25
2022-10-23T23:58:50.343Z,100252.69
